createdAt,value
2023-04-10T00:00:58.017Z,24.20
2023-04-10T00:03:30.894Z,24.13
2023-04-10T00:06:01.525Z,21.80
2023-04-10T00:08:34.989Z,22.20
2023-04-10T00:11:08.285Z,22.55
2023-04-10T00:13:40.231Z,23.65
2023-04-10T00:16:11.345Z,24.58
2023-04-10T00:18:48.018Z,22.85
2023-04-10T00:21:18.319Z,23.67
2023-04-10T00:23:50.074Z,25.77
2023-04-10T00:26:27.313Z,24.52
2023-04-10T00:29:00.002Z,24.33
2023-04-10T00:31:31.037Z,25.13
2023-04-10T00:34:03.423Z,25.15
2023-04-10T00:36:34.422Z,24.42
2023-04-10T00:39:05.192Z,23.38
2023-04-10T00:41:38.942Z,26.40
2023-04-10T00:46:41.663Z,24.05
2023-04-10T00:49:13.140Z,26.55
2023-04-10T00:51:44.152Z,25.33
2023-04-10T00:54:20.351Z,24.10
2023-04-10T00:56:57.668Z,26.05
2023-04-10T00:59:28.440Z,24.85
2023-04-10T01:01:59.512Z,25.27
2023-04-10T01:04:32.691Z,25.60
2023-04-10T01:07:11.840Z,26.50
2023-04-10T01:09:47.709Z,24.55
2023-04-10T01:12:41.112Z,26.08
2023-04-10T01:15:16.400Z,25.48
2023-04-10T01:17:53.626Z,27.20
2023-04-10T01:20:26.770Z,25.20
2023-04-10T01:23:21.176Z,27.48
2023-04-10T01:25:58.333Z,27.02
2023-04-10T01:28:51.148Z,26.65
2023-04-10T01:31:30.868Z,26.27
2023-04-10T01:34:08.283Z,27.17
2023-04-10T01:36:44.109Z,28.65
2023-04-10T01:39:15.538Z,28.98
2023-04-10T01:41:48.655Z,26.98
2023-04-10T01:44:21.682Z,27.23
2023-04-10T01:46:56.586Z,27.03
2023-04-10T01:49:30.917Z,28.67
2023-04-10T01:52:10.377Z,28.40
2023-04-10T01:54:41.794Z,29.20
2023-04-10T01:57:15.366Z,29.67
2023-04-10T01:59:58.569Z,29.52
2023-04-10T02:02:34.911Z,30.60
2023-04-10T02:05:05.679Z,31.02
2023-04-10T02:07:43.177Z,29.65
2023-04-10T02:10:17.249Z,26.63
2023-04-10T02:12:54.210Z,29.23
2023-04-10T02:15:30.039Z,28.52
2023-04-10T02:18:07.105Z,29.67
2023-04-10T02:20:38.704Z,26.75
2023-04-10T02:23:09.795Z,28.50
2023-04-10T02:25:40.547Z,29.90
2023-04-10T02:28:12.766Z,26.95
2023-04-10T02:30:44.223Z,30.65
2023-04-10T02:33:19.445Z,29.88
2023-04-10T02:35:50.500Z,30.38
2023-04-10T02:38:21.945Z,29.73
2023-04-10T02:40:53.637Z,30.30
2023-04-10T02:43:24.040Z,28.98
2023-04-10T02:45:55.220Z,28.65
2023-04-10T02:48:34.393Z,28.23
2023-04-10T02:51:07.517Z,29.33
2023-04-10T02:53:37.969Z,28.45
2023-04-10T02:56:12.118Z,28.20
2023-04-10T02:58:46.713Z,27.33
2023-04-10T03:01:18.638Z,26.60
2023-04-10T03:03:54.744Z,25.27
2023-04-10T03:06:32.114Z,28.20
2023-04-10T03:09:02.389Z,29.17
2023-04-10T03:11:32.855Z,27.67
2023-04-10T03:14:03.977Z,28.75
2023-04-10T03:16:34.576Z,28.35
2023-04-10T03:19:10.292Z,29.67
2023-04-10T03:21:41.071Z,26.88
2023-04-10T03:24:11.805Z,29.83
2023-04-10T03:26:42.435Z,28.25
2023-04-10T03:29:12.954Z,27.77
2023-04-10T03:31:44.503Z,26.95
2023-04-10T03:34:17.612Z,27.20
2023-04-10T03:36:48.340Z,29.23
2023-04-10T03:39:19.222Z,28.67
2023-04-10T03:41:49.664Z,27.58
2023-04-10T03:44:21.680Z,28.85
2023-04-10T03:46:52.287Z,27.35
2023-04-10T03:49:26.282Z,30.65
2023-04-10T03:52:06.013Z,29.52
2023-04-10T03:54:36.674Z,30.30
2023-04-10T03:57:07.743Z,27.83
2023-04-10T03:59:39.063Z,29.48
2023-04-10T04:02:14.864Z,29.45
2023-04-10T04:04:50.506Z,31.77
2023-04-10T04:07:41.147Z,31.58
2023-04-10T04:10:38.131Z,32.08
2023-04-10T04:27:57.888Z,28.90
2023-04-10T04:31:01.411Z,27.92
2023-04-10T04:33:51.374Z,31.95
2023-04-10T04:36:47.956Z,31.02
2023-04-10T04:39:21.379Z,31.23
2023-04-10T04:42:30.019Z,29.40
2023-04-10T04:45:10.656Z,32.45
2023-04-10T04:48:11.291Z,32.90
2023-04-10T04:51:02.104Z,32.97
2023-04-10T04:53:59.587Z,28.30
2023-04-10T04:57:10.132Z,31.00
2023-04-10T04:59:59.201Z,31.17
2023-04-10T05:02:50.856Z,31.70
2023-04-10T05:05:44.162Z,31.48
2023-04-10T05:08:31.488Z,31.98
2023-04-10T05:11:23.404Z,30.10
2023-04-10T05:14:02.071Z,31.25
2023-04-10T05:16:47.758Z,31.60
2023-04-10T05:19:35.958Z,30.17
2023-04-10T05:22:18.676Z,29.90
2023-04-10T05:25:27.314Z,30.10
2023-04-10T05:28:06.224Z,30.10
2023-04-10T05:30:56.018Z,31.20
2023-04-10T05:33:49.125Z,32.45
2023-04-10T05:36:59.012Z,28.70
2023-04-10T05:39:48.368Z,31.02
2023-04-10T05:42:30.872Z,31.55
2023-04-10T05:45:15.747Z,28.42
2023-04-10T05:47:58.322Z,24.88
2023-04-10T05:50:39.031Z,32.63
2023-04-10T05:53:25.696Z,30.50
2023-04-10T05:56:14.339Z,31.92
2023-04-10T05:59:07.581Z,29.88
2023-04-10T06:02:02.049Z,30.55
2023-04-10T06:04:35.076Z,31.13
2023-04-10T06:07:05.701Z,32.95
2023-04-10T06:09:38.805Z,29.98
2023-04-10T06:12:11.306Z,29.77
2023-04-10T06:14:43.606Z,32.55
2023-04-10T06:17:15.186Z,32.58
2023-04-10T06:19:45.366Z,31.25
2023-04-10T06:22:15.613Z,29.95
2023-04-10T06:24:48.449Z,30.17
2023-04-10T06:27:18.964Z,32.85
2023-04-10T06:29:50.148Z,31.60
2023-04-10T06:32:24.361Z,30.50
2023-04-10T06:34:54.613Z,31.20
2023-04-10T06:37:31.561Z,28.73
2023-04-10T06:40:12.245Z,28.15
2023-04-10T06:42:42.449Z,27.95
2023-04-10T06:45:18.669Z,27.75
2023-04-10T06:47:49.016Z,26.42
2023-04-10T06:50:19.228Z,27.13
2023-04-10T06:52:49.619Z,26.95
2023-04-10T06:55:22.622Z,25.00
2023-04-10T06:57:53.077Z,27.00
2023-04-10T07:00:24.038Z,25.65
2023-04-10T07:02:54.524Z,67.43
2023-04-10T07:05:25.375Z,25.90
2023-04-10T07:07:55.925Z,24.42
2023-04-10T07:10:28.806Z,25.00
2023-04-10T07:12:59.562Z,23.77
2023-04-10T07:15:30.052Z,24.63
2023-04-10T07:18:00.295Z,24.55
2023-04-10T07:20:30.503Z,28.25
2023-04-10T07:23:00.886Z,22.98
2023-04-10T07:25:33.898Z,24.35
2023-04-10T07:28:04.307Z,23.67
2023-04-10T07:30:34.798Z,23.23
2023-04-10T07:33:05.210Z,22.17
2023-04-10T07:35:37.185Z,21.90
2023-04-10T07:38:07.412Z,20.75
2023-04-10T07:40:40.196Z,21.90
2023-04-10T07:43:10.371Z,22.08
2023-04-10T07:45:40.918Z,19.98
2023-04-10T07:48:11.453Z,22.00
2023-04-10T07:50:41.738Z,20.13
2023-04-10T07:53:11.986Z,20.63
2023-04-10T07:55:48.950Z,24.38
2023-04-10T07:58:19.242Z,20.75
2023-04-10T08:00:49.933Z,21.08
2023-04-10T08:03:20.268Z,21.40
2023-04-10T08:05:50.932Z,23.92
2023-04-10T08:08:21.123Z,21.33
2023-04-10T08:10:53.949Z,20.98
2023-04-10T08:13:24.242Z,20.07
2023-04-10T08:15:54.556Z,19.15
2023-04-10T08:18:24.770Z,20.65
2023-04-10T08:20:54.914Z,18.55
2023-04-10T08:23:25.117Z,20.88
2023-04-10T08:25:58.010Z,18.02
2023-04-10T08:28:28.242Z,17.90
2023-04-10T08:30:58.910Z,19.42
2023-04-10T08:33:29.100Z,18.88
2023-04-10T08:35:59.362Z,18.35
2023-04-10T08:38:29.540Z,18.17
2023-04-10T08:41:02.401Z,20.67
2023-04-10T08:43:34.839Z,17.73
2023-04-10T08:46:05.559Z,18.48
2023-04-10T08:48:42.258Z,17.77
2023-04-10T08:51:20.049Z,18.88
2023-04-10T08:53:55.006Z,18.35
2023-04-10T08:56:28.416Z,33.05
2023-04-10T08:58:58.693Z,19.85
2023-04-10T09:01:29.038Z,15.88
2023-04-10T09:03:59.941Z,16.90
2023-04-10T09:06:31.898Z,14.68
2023-04-10T09:09:02.932Z,17.02
2023-04-10T09:12:04.414Z,15.05
2023-04-10T09:14:36.314Z,18.40
2023-04-10T09:17:19.008Z,14.38
2023-04-10T09:19:50.767Z,21.27
2023-04-10T09:22:21.568Z,12.93
2023-04-10T09:24:52.207Z,13.77
2023-04-10T09:27:35.813Z,13.27
2023-04-10T09:30:08.690Z,13.90
2023-04-10T09:32:41.737Z,12.77
2023-04-10T09:35:14.314Z,13.55
2023-04-10T09:37:46.383Z,15.20
2023-04-10T09:40:27.844Z,12.30
2023-04-10T09:43:01.010Z,14.02
2023-04-10T09:45:50.181Z,12.88
2023-04-10T09:48:21.199Z,13.77
2023-04-10T09:50:51.671Z,13.95
2023-04-10T09:53:23.625Z,13.88
2023-04-10T09:55:54.284Z,15.32
2023-04-10T09:58:28.569Z,14.45
2023-04-10T10:00:59.383Z,14.77
2023-04-10T10:03:30.054Z,11.15
2023-04-10T10:06:00.416Z,11.40
2023-04-10T10:08:31.221Z,12.18
2023-04-10T10:11:06.447Z,10.63
2023-04-10T10:13:45.935Z,11.75
2023-04-10T10:16:20.736Z,11.10
2023-04-10T10:18:58.297Z,9.48
2023-04-10T10:21:34.168Z,11.98
2023-04-10T10:24:05.715Z,7.30
2023-04-10T10:26:37.496Z,8.90
2023-04-10T10:29:14.288Z,9.05
2023-04-10T10:31:46.355Z,9.27
2023-04-10T10:34:19.165Z,8.77
2023-04-10T10:36:50.732Z,8.83
2023-04-10T10:39:32.476Z,9.68
2023-04-10T10:42:09.699Z,10.27
2023-04-10T10:44:50.752Z,9.82
2023-04-10T10:47:24.883Z,9.98
2023-04-10T10:49:56.694Z,10.32
2023-04-10T10:52:42.817Z,9.63
2023-04-10T10:55:39.867Z,10.27
2023-04-10T10:58:12.919Z,10.52
2023-04-10T11:01:12.815Z,10.50
2023-04-10T11:03:44.944Z,10.43
2023-04-10T11:06:20.181Z,9.57
2023-04-10T11:09:03.043Z,10.70
2023-04-10T11:12:01.104Z,12.63
2023-04-10T11:14:34.879Z,13.40
2023-04-10T11:17:24.392Z,12.18
2023-04-10T11:20:08.573Z,12.35
2023-04-10T11:23:34.301Z,12.18
2023-04-10T11:26:16.133Z,12.38
2023-04-10T11:28:46.493Z,11.50
2023-04-10T11:31:22.482Z,12.02
2023-04-10T11:34:06.284Z,12.82
2023-04-10T11:36:38.687Z,13.13
2023-04-10T11:39:14.006Z,13.38
2023-04-10T11:41:46.164Z,12.20
2023-04-10T11:44:21.246Z,12.95
2023-04-10T11:46:52.254Z,12.07
2023-04-10T11:49:26.574Z,12.07
2023-04-10T11:51:57.137Z,12.18
2023-04-10T11:54:28.839Z,12.90
2023-04-10T11:57:02.386Z,12.95
2023-04-10T12:02:10.770Z,12.75
2023-04-10T12:04:44.766Z,13.13
2023-04-10T12:07:15.218Z,12.95
2023-04-10T12:09:45.806Z,11.82
2023-04-10T12:12:15.933Z,16.05
2023-04-10T12:14:46.936Z,14.23
2023-04-10T12:17:17.709Z,14.30
2023-04-10T12:19:51.081Z,14.13
2023-04-10T12:22:21.887Z,16.25
2023-04-10T12:24:53.733Z,15.07
2023-04-10T12:27:25.744Z,14.68
2023-04-10T12:29:57.623Z,29.13
2023-04-10T12:32:28.916Z,15.38
2023-04-10T12:35:02.610Z,14.80
2023-04-10T12:40:18.547Z,15.15
2023-04-10T12:42:49.576Z,13.38
2023-04-10T12:45:21.007Z,14.43
2023-04-10T12:47:53.881Z,15.18
2023-04-10T12:50:27.543Z,13.43
2023-04-10T12:55:36.998Z,13.80
2023-04-10T12:58:20.955Z,15.48
2023-04-10T13:00:52.377Z,14.95
2023-04-10T13:03:22.857Z,14.35
2023-04-10T13:05:56.540Z,13.27
2023-04-10T13:11:03.295Z,14.40
2023-04-10T13:13:34.417Z,13.10
2023-04-10T13:16:04.780Z,13.98
2023-04-10T13:18:37.144Z,16.27
2023-04-10T13:21:11.547Z,14.73
2023-04-10T13:23:42.718Z,17.08
2023-04-10T13:26:13.195Z,13.73
2023-04-10T13:28:43.392Z,27.25
2023-04-10T13:31:16.115Z,12.70
2023-04-10T13:33:48.321Z,13.27
2023-04-10T13:36:21.202Z,12.25
2023-04-10T13:38:51.532Z,12.82
2023-04-10T13:41:21.925Z,13.23
2023-04-10T13:43:52.166Z,13.35
2023-04-10T13:46:22.494Z,15.27
2023-04-10T13:48:52.680Z,17.50
2023-04-10T13:51:25.848Z,13.25
2023-04-10T13:53:55.990Z,13.30
2023-04-10T13:56:26.226Z,12.75
2023-04-10T13:58:56.668Z,12.50
2023-04-10T14:01:27.355Z,13.23
2023-04-10T14:03:57.838Z,12.07
2023-04-10T14:06:32.019Z,13.48
2023-04-10T14:09:02.426Z,13.25
2023-04-10T14:11:32.689Z,12.63
2023-04-10T14:14:02.895Z,13.25
2023-04-10T14:16:33.241Z,12.65
2023-04-10T14:19:03.620Z,13.07
2023-04-10T14:21:37.551Z,13.63
2023-04-10T14:24:07.812Z,13.63
2023-04-10T14:26:38.004Z,13.88
2023-04-10T14:29:09.280Z,13.15
2023-04-10T14:31:50.463Z,12.88
2023-04-10T14:34:27.336Z,14.07
2023-04-10T14:37:00.175Z,13.25
2023-04-10T14:39:30.754Z,12.90
2023-04-10T14:42:02.231Z,14.48
2023-04-10T14:44:32.966Z,13.27
2023-04-10T14:47:06.393Z,13.40
2023-04-10T14:49:36.693Z,16.42
2023-04-10T14:52:09.621Z,14.23
2023-04-10T14:54:39.805Z,32.95
2023-04-10T14:57:10.041Z,25.52
2023-04-10T14:59:40.217Z,16.73
2023-04-10T15:02:10.542Z,14.07
2023-04-10T15:04:40.761Z,14.93
2023-04-10T15:07:16.684Z,16.35
2023-04-10T15:09:46.937Z,22.55
2023-04-10T15:12:17.221Z,15.20
2023-04-10T15:14:47.529Z,10.95
2023-04-10T15:17:17.878Z,13.90
2023-04-10T15:19:48.054Z,10.68
2023-04-10T15:22:20.890Z,10.32
2023-04-10T15:24:51.293Z,11.15
2023-04-10T15:27:25.440Z,12.10
2023-04-10T15:29:55.659Z,12.20
2023-04-10T15:32:26.402Z,10.13
2023-04-10T15:34:56.673Z,9.13
2023-04-10T15:37:29.585Z,9.43
2023-04-10T15:40:00.167Z,10.00
2023-04-10T15:42:31.008Z,16.58
2023-04-10T15:45:01.198Z,18.75
2023-04-10T15:47:31.514Z,14.68
2023-04-10T15:50:01.810Z,11.45
2023-04-10T15:52:35.043Z,9.25
2023-04-10T15:55:05.532Z,9.50
2023-04-10T15:57:36.259Z,8.60
2023-04-10T16:00:07.035Z,7.78
2023-04-10T16:02:37.421Z,8.30
2023-04-10T16:05:08.866Z,7.13
2023-04-10T16:07:43.985Z,6.68
2023-04-10T16:10:14.867Z,6.32
2023-04-10T16:12:45.159Z,7.05
2023-04-10T16:15:16.424Z,7.28
2023-04-10T16:17:46.833Z,15.55
2023-04-10T16:20:17.688Z,6.88
2023-04-10T16:22:50.493Z,6.63
2023-04-10T16:25:21.804Z,8.30
2023-04-10T16:27:53.533Z,44.13
2023-04-10T16:30:23.887Z,7.97
2023-04-10T16:32:54.716Z,12.50
2023-04-10T16:35:25.723Z,21.88
2023-04-10T16:37:58.705Z,17.30
2023-04-10T16:40:32.918Z,25.95
2023-04-10T16:43:03.401Z,12.55
2023-04-10T16:49:13.813Z,17.88
2023-04-10T16:51:50.373Z,10.27
2023-04-10T16:54:24.656Z,18.60
2023-04-10T17:00:24.005Z,13.98
2023-04-10T17:03:52.188Z,23.55
2023-04-10T17:18:35.716Z,14.27
2023-04-10T17:22:17.772Z,12.02
2023-04-10T17:25:05.831Z,10.02
2023-04-10T17:27:50.521Z,9.55
2023-04-10T17:30:44.612Z,9.52
2023-04-10T17:33:19.842Z,9.57
2023-04-10T17:36:27.906Z,10.90
2023-04-10T17:39:01.144Z,10.80
2023-04-10T17:41:47.650Z,9.40
2023-04-10T17:44:18.115Z,12.30
2023-04-10T17:46:48.603Z,11.00
2023-04-10T17:49:19.085Z,11.77
2023-04-10T17:51:53.201Z,20.67
2023-04-10T17:54:25.527Z,211.70
2023-04-10T17:56:58.950Z,53.45
2023-04-10T17:59:34.496Z,34.85
2023-04-10T18:02:04.745Z,44.75
2023-04-10T18:04:35.523Z,26.83
2023-04-10T18:07:09.114Z,22.15
2023-04-10T18:09:39.704Z,25.35
2023-04-10T18:12:11.012Z,45.75
2023-04-10T18:14:42.805Z,34.85
2023-04-10T18:17:12.999Z,22.23
2023-04-10T18:19:43.131Z,23.33
2023-04-10T18:22:15.968Z,22.90
2023-04-10T18:24:49.910Z,20.83
2023-04-10T18:27:20.135Z,23.50
2023-04-10T18:30:01.043Z,23.35
2023-04-10T18:32:31.416Z,25.55
2023-04-10T18:35:03.817Z,27.13
2023-04-10T18:37:36.825Z,30.27
2023-04-10T18:40:15.866Z,28.42
2023-04-10T18:42:49.267Z,35.38
2023-04-10T18:45:20.800Z,30.88
2023-04-10T18:47:53.343Z,31.88
2023-04-10T18:50:23.526Z,37.72
2023-04-10T18:52:56.304Z,46.58
2023-04-10T18:55:26.571Z,42.30
2023-04-10T18:57:56.931Z,53.78
2023-04-10T19:00:32.293Z,52.90
2023-04-10T19:03:07.256Z,67.60
2023-04-10T19:05:37.658Z,48.00
2023-04-10T19:08:14.481Z,38.33
2023-04-10T19:10:45.275Z,39.15
2023-04-10T19:13:16.070Z,45.50
2023-04-10T19:15:48.633Z,48.10
2023-04-10T19:18:18.993Z,58.78
2023-04-10T19:20:52.989Z,42.45
2023-04-10T19:23:29.346Z,112.22
2023-04-10T19:26:00.627Z,70.93
2023-04-10T19:28:33.110Z,53.13
2023-04-10T19:31:03.838Z,102.25
2023-04-10T19:33:34.463Z,47.90
2023-04-10T19:36:06.822Z,48.75
2023-04-10T19:38:41.222Z,41.88
2023-04-10T19:41:18.251Z,39.03
2023-04-10T19:43:49.391Z,41.70
2023-04-10T19:46:20.716Z,40.90
2023-04-10T19:48:52.273Z,41.92
2023-04-10T19:51:22.486Z,43.22
2023-04-10T19:53:56.049Z,43.53
2023-04-10T19:58:58.027Z,41.38
2023-04-10T20:01:28.755Z,47.63
2023-04-10T20:03:59.307Z,50.88
2023-04-10T20:06:30.010Z,43.13
2023-04-10T20:09:03.089Z,42.15
2023-04-10T20:11:33.595Z,47.35
2023-04-10T20:14:04.030Z,43.30
2023-04-10T20:16:34.622Z,45.13
2023-04-10T20:19:05.501Z,45.50
2023-04-10T20:21:36.767Z,45.22
2023-04-10T20:24:09.912Z,44.13
2023-04-10T20:26:40.288Z,41.83
2023-04-10T20:29:10.973Z,41.33
2023-04-10T20:31:41.499Z,39.35
2023-04-10T20:34:11.961Z,38.53
2023-04-10T20:36:42.299Z,40.15
2023-04-10T20:39:15.205Z,39.47
2023-04-10T20:41:45.497Z,40.40
2023-04-10T20:44:15.769Z,39.17
2023-04-10T20:46:50.430Z,40.60
2023-04-10T20:49:20.723Z,41.28
2023-04-10T20:51:50.958Z,38.65
2023-04-10T20:54:25.954Z,38.17
2023-04-10T20:56:57.243Z,39.28
2023-04-10T20:59:27.536Z,36.50
2023-04-10T21:01:58.445Z,45.45
2023-04-10T21:04:29.141Z,95.15
2023-04-10T21:06:59.719Z,76.85
2023-04-10T21:09:33.055Z,112.03
2023-04-10T21:12:03.319Z,152.40
2023-04-10T21:14:33.842Z,45.20
2023-04-10T21:17:04.177Z,82.97
2023-04-10T21:19:38.810Z,74.88
2023-04-10T21:22:10.491Z,49.60
2023-04-10T21:24:43.341Z,106.05
2023-04-10T21:27:13.683Z,49.10
2023-04-10T21:29:43.884Z,99.47
2023-04-10T21:32:14.168Z,72.38
2023-04-10T21:34:44.630Z,43.83
2023-04-10T21:37:14.814Z,50.65
2023-04-10T21:39:47.581Z,74.28
2023-04-10T21:42:17.730Z,65.15
2023-04-10T21:44:47.893Z,80.72
2023-04-10T21:47:18.024Z,63.03
2023-04-10T21:49:48.226Z,47.67
2023-04-10T21:52:18.512Z,75.88
2023-04-10T21:54:51.244Z,81.90
2023-04-10T21:57:21.621Z,111.20
2023-04-10T21:59:51.765Z,129.70
2023-04-10T22:02:22.614Z,99.38
2023-04-10T22:04:54.778Z,100.88
2023-04-10T22:07:25.302Z,89.90
2023-04-10T22:09:58.090Z,81.93
2023-04-10T22:12:28.286Z,82.93
2023-04-10T22:14:58.513Z,85.00
2023-04-10T22:17:28.753Z,55.05
2023-04-10T22:19:58.945Z,69.43
2023-04-10T22:22:29.179Z,64.18
2023-04-10T22:25:02.064Z,68.47
2023-04-10T22:27:32.346Z,70.87
2023-04-10T22:30:04.233Z,82.45
2023-04-10T22:32:35.088Z,101.75
2023-04-10T22:35:05.343Z,76.30
2023-04-10T22:37:35.778Z,79.30
2023-04-10T22:40:10.143Z,63.53
2023-04-10T22:42:40.397Z,68.55
2023-04-10T22:45:11.875Z,55.95
2023-04-10T22:47:42.103Z,65.55
2023-04-10T22:50:12.713Z,49.95
2023-04-10T22:52:42.954Z,47.95
2023-04-10T22:55:16.029Z,49.05
2023-04-10T22:57:50.444Z,50.95
2023-04-10T23:00:21.151Z,52.00
2023-04-10T23:02:51.462Z,52.97
2023-04-10T23:05:21.738Z,51.80
2023-04-10T23:07:51.969Z,53.25
2023-04-10T23:10:24.970Z,54.28
2023-04-10T23:12:55.120Z,60.33
2023-04-10T23:15:28.416Z,62.08
2023-04-10T23:17:59.240Z,59.83
2023-04-10T23:20:29.547Z,59.05
2023-04-10T23:22:59.760Z,61.33
2023-04-10T23:25:32.688Z,58.03
2023-04-10T23:28:03.731Z,61.47
2023-04-10T23:30:34.636Z,60.60
2023-04-10T23:33:05.026Z,77.10
2023-04-10T23:35:35.275Z,57.72
2023-04-10T23:38:05.638Z,48.38
2023-04-10T23:40:38.556Z,54.70
2023-04-10T23:43:08.897Z,57.30
2023-04-10T23:45:39.357Z,64.40
2023-04-10T23:48:10.908Z,57.90
2023-04-10T23:50:41.250Z,56.45
2023-04-10T23:53:12.811Z,58.60
2023-04-10T23:55:47.243Z,71.63
2023-04-10T23:58:17.473Z,74.05
